createdAt,value
2018-10-19T00:00:53.504Z,725.50
2018-10-19T00:01:54.028Z,725.51
2018-10-19T00:02:54.475Z,725.47
2018-10-19T00:03:54.915Z,725.60
2018-10-19T00:04:55.422Z,725.51
2018-10-19T00:05:55.857Z,725.50
2018-10-19T00:06:56.332Z,725.59
2018-10-19T00:07:56.797Z,725.61
2018-10-19T00:08:57.332Z,725.58
2018-10-19T00:09:57.735Z,725.59
2018-10-19T00:10:58.209Z,725.51
2018-10-19T00:11:58.674Z,725.57
2018-10-19T00:12:59.143Z,725.54
2018-10-19T00:13:59.612Z,725.52
2018-10-19T00:15:00.144Z,725.50
2018-10-19T00:16:00.551Z,725.56
2018-10-19T00:17:01.091Z,725.48
2018-10-19T00:18:01.492Z,725.46
2018-10-19T00:19:02.162Z,725.49
2018-10-19T00:20:02.431Z,725.53
2018-10-19T00:21:02.975Z,725.55
2018-10-19T00:22:03.371Z,725.52
2018-10-19T00:23:03.862Z,725.47
2018-10-19T00:24:04.313Z,725.47
2018-10-19T00:25:04.781Z,725.49
2018-10-19T00:26:05.251Z,725.53
2018-10-19T00:27:05.974Z,725.53
2018-10-19T00:28:06.191Z,725.58
2018-10-19T00:29:06.734Z,725.51
2018-10-19T00:30:07.135Z,725.54
2018-10-19T00:31:07.604Z,725.51
2018-10-19T00:32:08.135Z,725.52
2018-10-19T00:33:08.583Z,725.54
2018-10-19T00:34:09.020Z,725.56
2018-10-19T00:35:09.566Z,725.54
2018-10-19T00:36:09.961Z,725.58
2018-10-19T00:37:10.435Z,725.55
2018-10-19T00:38:10.905Z,725.57
2018-10-19T00:39:11.403Z,725.55
2018-10-19T00:40:11.849Z,725.55
2018-10-19T00:41:12.397Z,725.48
2018-10-19T00:42:12.793Z,725.47
2018-10-19T00:43:13.265Z,725.48
2018-10-19T00:44:13.737Z,725.45
2018-10-19T00:45:14.285Z,725.43
2018-10-19T00:46:14.685Z,725.48
2018-10-19T00:47:15.192Z,725.48
2018-10-19T00:48:15.631Z,725.45
2018-10-19T00:49:16.099Z,725.47
2018-10-19T00:50:16.573Z,725.47
2018-10-19T00:51:17.121Z,725.46
2018-10-19T00:52:17.520Z,725.48
2018-10-19T00:53:17.995Z,725.40
2018-10-19T00:54:18.466Z,725.46
2018-10-19T00:55:18.941Z,725.44
2018-10-19T00:56:19.413Z,725.47
2018-10-19T00:57:19.987Z,725.44
2018-10-19T00:58:20.359Z,725.44
2018-10-19T00:59:20.832Z,725.47
2018-10-19T01:00:21.306Z,725.45
2018-10-19T01:01:21.776Z,725.46
2018-10-19T01:02:22.250Z,725.46
2018-10-19T01:03:22.723Z,725.52
2018-10-19T01:04:23.200Z,725.53
2018-10-19T01:05:23.668Z,725.49
2018-10-19T01:06:24.139Z,725.51
2018-10-19T01:07:27.648Z,725.53
2018-10-19T01:08:25.085Z,725.51
2018-10-19T01:09:25.555Z,725.47
2018-10-19T01:10:26.027Z,725.46
2018-10-19T01:11:26.498Z,725.46
2018-10-19T01:12:26.971Z,725.45
2018-10-19T01:13:27.440Z,725.48
2018-10-19T01:14:27.910Z,725.47
2018-10-19T01:15:28.381Z,725.50
2018-10-19T01:16:28.853Z,725.44
2018-10-19T01:17:29.323Z,725.47
2018-10-19T01:18:29.793Z,725.46
2018-10-19T01:19:30.263Z,725.43
2018-10-19T01:20:30.735Z,725.46
2018-10-19T01:21:31.202Z,725.44
2018-10-19T01:22:31.671Z,725.44
2018-10-19T01:23:32.145Z,725.44
2018-10-19T01:24:32.611Z,725.43
2018-10-19T01:25:33.080Z,725.42
2018-10-19T01:26:33.550Z,725.47
2018-10-19T01:27:34.021Z,725.48
2018-10-19T01:28:34.491Z,725.50
2018-10-19T01:29:34.958Z,725.46
2018-10-19T01:30:35.434Z,725.45
2018-10-19T01:31:35.911Z,725.46
2018-10-19T01:32:36.402Z,725.46
2018-10-19T01:33:36.839Z,725.50
2018-10-19T01:34:37.314Z,725.47
2018-10-19T01:35:37.777Z,725.47
2018-10-19T01:36:38.251Z,725.46
2018-10-19T01:37:38.720Z,725.48
2018-10-19T01:38:39.189Z,725.43
2018-10-19T01:39:39.657Z,725.46
2018-10-19T01:40:40.330Z,725.46
2018-10-19T01:41:40.598Z,725.43
2018-10-19T01:42:41.070Z,725.43
2018-10-19T01:43:41.540Z,725.42
2018-10-19T01:44:42.011Z,725.44
2018-10-19T01:45:42.483Z,725.37
2018-10-19T01:46:42.952Z,725.39
2018-10-19T01:47:43.428Z,725.37
2018-10-19T01:48:43.895Z,725.42
2018-10-19T01:49:44.367Z,725.41
2018-10-19T01:50:44.836Z,725.43
2018-10-19T01:51:45.309Z,725.42
2018-10-19T01:52:45.782Z,725.44
2018-10-19T01:53:46.252Z,725.38
2018-10-19T01:54:46.727Z,725.42
2018-10-19T01:55:47.197Z,725.43
2018-10-19T01:56:47.667Z,725.42
2018-10-19T01:57:48.140Z,725.46
2018-10-19T01:58:48.611Z,725.39
2018-10-19T01:59:49.084Z,725.43
2018-10-19T02:00:49.560Z,725.39
2018-10-19T02:01:50.029Z,725.41
2018-10-19T02:02:50.504Z,725.40
2018-10-19T02:03:50.975Z,725.47
2018-10-19T02:04:51.448Z,725.45
2018-10-19T02:05:51.925Z,725.42
2018-10-19T02:06:52.393Z,725.38
2018-10-19T02:07:52.866Z,725.34
2018-10-19T02:08:53.363Z,725.38
2018-10-19T02:09:53.815Z,725.37
2018-10-19T02:10:54.319Z,725.37
2018-10-19T02:11:54.762Z,725.37
2018-10-19T02:12:55.234Z,725.36
2018-10-19T02:13:55.705Z,725.32
2018-10-19T02:14:56.184Z,725.33
2018-10-19T02:15:56.652Z,725.31
2018-10-19T02:16:57.176Z,725.34
2018-10-19T02:17:57.597Z,725.40
2018-10-19T02:18:58.072Z,725.38
2018-10-19T02:19:58.542Z,725.39
2018-10-19T02:20:59.070Z,725.42
2018-10-19T02:21:59.488Z,725.39
2018-10-19T02:23:00.034Z,725.42
2018-10-19T02:24:00.432Z,725.38
2018-10-19T02:25:00.903Z,725.32
2018-10-19T02:26:01.375Z,725.28
2018-10-19T02:27:01.862Z,725.36
2018-10-19T02:28:02.320Z,725.37
2018-10-19T02:29:02.808Z,725.33
2018-10-19T02:30:03.258Z,725.41
2018-10-19T02:31:03.729Z,725.36
2018-10-19T02:32:04.204Z,725.38
2018-10-19T02:33:04.731Z,725.34
2018-10-19T02:34:05.140Z,725.36
2018-10-19T02:35:05.638Z,725.34
2018-10-19T02:36:06.082Z,725.32
2018-10-19T02:37:06.549Z,725.36
2018-10-19T02:38:07.018Z,725.35
2018-10-19T02:39:07.518Z,725.36
2018-10-19T02:40:07.960Z,725.34
2018-10-19T02:41:08.488Z,725.38
2018-10-19T02:42:08.896Z,725.38
2018-10-19T02:43:09.569Z,725.37
2018-10-19T02:44:09.835Z,725.31
2018-10-19T02:45:10.353Z,725.33
2018-10-19T02:46:10.775Z,725.34
2018-10-19T02:47:11.285Z,725.32
2018-10-19T02:48:11.717Z,725.33
2018-10-19T02:49:12.184Z,725.28
2018-10-19T02:50:12.654Z,725.25
2018-10-19T02:51:13.168Z,725.34
2018-10-19T02:52:13.590Z,725.27
2018-10-19T02:53:14.122Z,725.29
2018-10-19T02:54:14.534Z,725.30
2018-10-19T02:55:15.002Z,725.29
2018-10-19T02:56:15.471Z,725.28
2018-10-19T02:57:16.038Z,725.30
2018-10-19T02:58:16.413Z,725.31
2018-10-19T02:59:16.958Z,725.30
2018-10-19T03:00:17.352Z,725.31
2018-10-19T03:01:17.823Z,725.29
2018-10-19T03:02:18.293Z,725.31
2018-10-19T03:03:18.931Z,725.41
2018-10-19T03:04:19.238Z,725.32
2018-10-19T03:05:19.707Z,725.29
2018-10-19T03:06:20.179Z,725.33
2018-10-19T03:07:20.650Z,725.32
2018-10-19T03:08:21.121Z,725.35
2018-10-19T03:09:21.597Z,725.39
2018-10-19T03:10:22.065Z,725.33
2018-10-19T03:11:22.540Z,725.36
2018-10-19T03:12:23.010Z,725.38
2018-10-19T03:13:23.483Z,725.33
2018-10-19T03:14:23.951Z,725.31
2018-10-19T03:15:24.427Z,725.37
2018-10-19T03:16:24.897Z,725.36
2018-10-19T03:17:25.369Z,725.31
2018-10-19T03:18:25.841Z,725.38
2018-10-19T03:19:26.316Z,725.39
2018-10-19T03:20:26.786Z,725.33
2018-10-19T03:21:27.259Z,725.32
2018-10-19T03:22:27.737Z,725.38
2018-10-19T03:23:28.205Z,725.35
2018-10-19T03:24:28.680Z,725.33
2018-10-19T03:25:29.198Z,725.33
2018-10-19T03:26:29.622Z,725.35
2018-10-19T03:27:30.098Z,725.32
2018-10-19T03:28:30.572Z,725.32
2018-10-19T03:29:31.045Z,725.28
2018-10-19T03:30:31.516Z,725.32
2018-10-19T03:31:31.995Z,725.31
2018-10-19T03:32:32.461Z,725.29
2018-10-19T03:33:32.936Z,725.30
2018-10-19T03:34:33.407Z,725.29
2018-10-19T03:35:33.889Z,725.31
2018-10-19T03:36:34.354Z,725.24
2018-10-19T03:37:34.828Z,725.25
2018-10-19T03:38:35.298Z,725.26
2018-10-19T03:39:35.771Z,725.24
2018-10-19T03:40:36.261Z,725.24
2018-10-19T03:41:36.714Z,725.21
2018-10-19T03:42:37.187Z,725.21
2018-10-19T03:43:37.658Z,725.22
2018-10-19T03:44:38.129Z,725.23
2018-10-19T03:45:38.635Z,725.23
2018-10-19T03:46:39.069Z,725.25
2018-10-19T03:47:39.540Z,725.22
2018-10-19T03:48:40.015Z,725.23
2018-10-19T03:49:40.482Z,725.25
2018-10-19T03:50:40.953Z,725.26
2018-10-19T03:51:41.428Z,725.30
2018-10-19T03:52:41.890Z,725.26
2018-10-19T03:53:42.360Z,725.27
2018-10-19T03:54:42.832Z,725.26
2018-10-19T03:55:43.300Z,725.26
2018-10-19T03:56:43.774Z,725.32
2018-10-19T03:57:44.243Z,725.30
2018-10-19T03:58:44.708Z,725.30
2018-10-19T03:59:45.180Z,725.32
2018-10-19T04:00:45.647Z,725.32
2018-10-19T04:01:46.118Z,725.34
2018-10-19T04:02:46.585Z,725.38
2018-10-19T04:03:47.098Z,725.34
2018-10-19T04:04:47.526Z,725.34
2018-10-19T04:05:47.995Z,725.40
2018-10-19T04:06:48.464Z,725.31
2018-10-19T04:07:48.935Z,725.35
2018-10-19T04:08:49.404Z,725.35
2018-10-19T04:09:49.875Z,725.36
2018-10-19T04:10:50.345Z,725.33
2018-10-19T04:11:50.814Z,725.40
2018-10-19T04:12:51.286Z,725.35
2018-10-19T04:13:51.755Z,725.33
2018-10-19T04:14:52.226Z,725.35
2018-10-19T04:15:52.696Z,725.39
2018-10-19T04:16:53.203Z,725.41
2018-10-19T04:17:53.635Z,725.32
2018-10-19T04:18:54.110Z,725.33
2018-10-19T04:19:54.578Z,725.33
2018-10-19T04:20:55.060Z,725.32
2018-10-19T04:21:55.523Z,725.35
2018-10-19T04:22:56.029Z,725.32
2018-10-19T04:23:56.472Z,725.36
2018-10-19T04:24:56.984Z,725.37
2018-10-19T04:25:57.404Z,725.39
2018-10-19T04:26:57.904Z,725.42
2018-10-19T04:27:58.354Z,725.42
2018-10-19T04:28:58.837Z,725.41
2018-10-19T04:29:59.296Z,725.36
2018-10-19T04:30:59.765Z,725.44
2018-10-19T04:32:00.237Z,725.43
2018-10-19T04:33:00.748Z,725.38
2018-10-19T04:34:01.185Z,725.39
2018-10-19T04:35:01.748Z,725.45
2018-10-19T04:36:02.130Z,725.43
2018-10-19T04:37:02.605Z,725.37
2018-10-19T04:38:03.073Z,725.38
2018-10-19T04:39:03.592Z,725.39
2018-10-19T04:40:04.020Z,725.38
2018-10-19T04:41:04.535Z,725.38
2018-10-19T04:42:05.084Z,725.41
2018-10-19T04:43:05.441Z,725.42
2018-10-19T04:44:05.915Z,725.41
2018-10-19T04:45:06.452Z,725.45
2018-10-19T04:46:06.858Z,725.40
2018-10-19T04:47:07.353Z,725.45
2018-10-19T04:48:07.805Z,725.42
2018-10-19T04:49:08.281Z,725.41
2018-10-19T04:50:08.750Z,725.42
2018-10-19T04:51:09.281Z,725.45
2018-10-19T04:52:09.699Z,725.45
2018-10-19T04:53:10.240Z,725.47
2018-10-19T04:54:10.644Z,725.44
2018-10-19T04:55:11.113Z,725.41
2018-10-19T04:56:11.585Z,725.41
2018-10-19T04:57:12.146Z,725.45
2018-10-19T04:58:12.530Z,725.40
2018-10-19T04:59:13.080Z,725.46
2018-10-19T05:00:13.473Z,725.40
2018-10-19T05:01:13.948Z,725.49
2018-10-19T05:02:14.416Z,725.46
2018-10-19T05:03:15.042Z,725.41
2018-10-19T05:04:15.355Z,725.42
2018-10-19T05:05:15.872Z,725.45
2018-10-19T05:06:16.344Z,725.45
2018-10-19T05:07:16.765Z,725.46
2018-10-19T05:08:17.331Z,725.51
2018-10-19T05:09:17.705Z,725.45
2018-10-19T05:10:18.181Z,725.46
2018-10-19T05:11:18.673Z,725.41
2018-10-19T05:12:19.188Z,725.42
2018-10-19T05:13:19.584Z,725.46
2018-10-19T05:14:20.058Z,725.48
2018-10-19T05:15:20.524Z,725.49
2018-10-19T05:16:20.992Z,725.51
2018-10-19T05:17:21.463Z,725.49
2018-10-19T05:18:21.932Z,725.49
2018-10-19T05:19:22.400Z,725.51
2018-10-19T05:20:22.871Z,725.49
2018-10-19T05:21:23.340Z,725.51
2018-10-19T05:22:23.813Z,725.53
2018-10-19T05:23:24.278Z,725.55
2018-10-19T05:24:24.750Z,725.52
2018-10-19T05:25:25.219Z,725.51
2018-10-19T05:26:25.691Z,725.53
2018-10-19T05:27:26.160Z,725.53
2018-10-19T05:28:26.628Z,725.55
2018-10-19T05:29:27.099Z,725.55
2018-10-19T05:30:27.619Z,725.59
2018-10-19T05:31:28.040Z,725.59
2018-10-19T05:32:28.509Z,725.55
2018-10-19T05:33:28.982Z,725.55
2018-10-19T05:34:29.452Z,725.59
2018-10-19T05:35:29.923Z,725.60
2018-10-19T05:36:30.392Z,725.59
2018-10-19T05:37:30.863Z,725.58
2018-10-19T05:38:31.334Z,725.58
2018-10-19T05:39:31.807Z,725.57
2018-10-19T05:40:32.277Z,725.56
2018-10-19T05:41:32.751Z,725.53
2018-10-19T05:42:33.222Z,725.58
2018-10-19T05:43:33.759Z,725.57
2018-10-19T05:44:34.164Z,725.51
2018-10-19T05:45:34.635Z,725.57
2018-10-19T05:46:35.107Z,725.56
2018-10-19T05:47:35.583Z,725.63
2018-10-19T05:48:36.054Z,725.65
2018-10-19T05:49:36.524Z,725.58
2018-10-19T05:50:37.005Z,725.60
2018-10-19T05:51:37.467Z,725.61
2018-10-19T05:52:37.942Z,725.60
2018-10-19T05:53:38.414Z,725.61
2018-10-19T05:54:38.887Z,725.62
2018-10-19T05:55:39.360Z,725.65
2018-10-19T05:56:39.833Z,725.66
2018-10-19T05:57:40.310Z,725.63
2018-10-19T05:58:40.779Z,725.56
2018-10-19T05:59:41.254Z,725.71
2018-10-19T06:00:41.725Z,725.70
2018-10-19T06:01:42.200Z,725.68
2018-10-19T06:02:42.795Z,725.66
2018-10-19T06:03:43.147Z,725.64
2018-10-19T06:04:43.618Z,725.66
2018-10-19T06:05:44.144Z,725.67
2018-10-19T06:06:44.569Z,725.61
2018-10-19T06:07:45.036Z,725.65
2018-10-19T06:08:45.510Z,725.65
2018-10-19T06:09:45.991Z,725.70
2018-10-19T06:10:46.456Z,725.71
2018-10-19T06:11:46.937Z,725.69
2018-10-19T06:12:47.403Z,725.70
2018-10-19T06:13:47.901Z,725.71
2018-10-19T06:14:48.344Z,725.70
2018-10-19T06:15:48.814Z,725.73
2018-10-19T06:16:49.289Z,725.76
2018-10-19T06:17:49.759Z,725.76
2018-10-19T06:18:50.231Z,725.72
2018-10-19T06:19:50.701Z,725.81
2018-10-19T06:20:51.224Z,725.78
2018-10-19T06:21:51.645Z,725.80
2018-10-19T06:22:52.142Z,725.81
2018-10-19T06:23:52.582Z,725.82
2018-10-19T06:24:53.053Z,725.80
2018-10-19T06:25:53.617Z,725.86
2018-10-19T06:26:53.992Z,725.84
2018-10-19T06:27:54.463Z,725.81
2018-10-19T06:28:54.947Z,725.82
2018-10-19T06:29:55.402Z,725.84
2018-10-19T06:30:55.870Z,725.84
2018-10-19T06:31:56.364Z,725.86
2018-10-19T06:32:56.811Z,725.85
2018-10-19T06:33:57.281Z,725.86
2018-10-19T06:34:57.755Z,725.86
2018-10-19T06:35:58.220Z,725.83
2018-10-19T06:36:58.694Z,725.85
2018-10-19T06:37:59.185Z,725.89
2018-10-19T06:38:59.632Z,725.87
2018-10-19T06:40:00.104Z,725.90
2018-10-19T06:41:00.595Z,725.90
2018-10-19T06:42:01.041Z,725.92
2018-10-19T06:43:01.510Z,725.86
2018-10-19T06:44:02.018Z,725.86
2018-10-19T06:45:02.450Z,726.00
2018-10-19T06:46:02.920Z,725.99
2018-10-19T06:47:03.414Z,726.01
2018-10-19T06:48:03.860Z,725.97
2018-10-19T06:49:04.365Z,725.99
2018-10-19T06:50:04.824Z,725.96
2018-10-19T06:51:05.276Z,725.95
2018-10-19T06:52:05.745Z,725.95
2018-10-19T06:53:06.234Z,725.99
2018-10-19T06:54:06.693Z,726.02
2018-10-19T06:55:07.164Z,726.02
2018-10-19T06:56:07.694Z,726.06
2018-10-19T06:57:08.106Z,726.04
2018-10-19T06:58:08.578Z,726.03
2018-10-19T06:59:09.187Z,726.01
2018-10-19T07:00:09.524Z,726.07
2018-10-19T07:01:10.099Z,726.11
2018-10-19T07:02:10.538Z,726.05
2018-10-19T07:03:10.946Z,726.05
2018-10-19T07:04:11.416Z,726.08
2018-10-19T07:05:12.031Z,726.07
2018-10-19T07:06:12.535Z,726.12
2018-10-19T07:07:12.838Z,726.11
2018-10-19T07:08:13.342Z,726.10
2018-10-19T07:09:13.784Z,726.08
2018-10-19T07:10:14.259Z,726.07
2018-10-19T07:11:14.786Z,726.08
2018-10-19T07:12:15.265Z,726.01
2018-10-19T07:13:15.678Z,726.06
2018-10-19T07:14:16.212Z,726.09
2018-10-19T07:15:16.627Z,726.11
2018-10-19T07:16:17.099Z,726.18
2018-10-19T07:17:17.573Z,726.21
2018-10-19T07:18:18.046Z,726.13
2018-10-19T07:19:18.521Z,726.18
2018-10-19T07:20:18.995Z,726.16
2018-10-19T07:21:19.466Z,726.16
2018-10-19T07:22:19.941Z,726.19
2018-10-19T07:23:20.413Z,726.16
2018-10-19T07:24:20.886Z,726.17
2018-10-19T07:25:21.361Z,726.16
2018-10-19T07:26:21.830Z,726.14
2018-10-19T07:27:22.303Z,726.16
2018-10-19T07:28:22.775Z,726.17
2018-10-19T07:29:23.292Z,726.22
2018-10-19T07:30:23.720Z,726.18
2018-10-19T07:31:24.189Z,726.18
2018-10-19T07:32:24.660Z,726.21
2018-10-19T07:33:25.130Z,726.21
2018-10-19T07:34:25.602Z,726.19
2018-10-19T07:35:26.074Z,726.25
2018-10-19T07:36:26.557Z,726.23
2018-10-19T07:37:27.016Z,726.21
2018-10-19T07:38:27.487Z,726.25
2018-10-19T07:39:27.959Z,726.26
2018-10-19T07:40:28.427Z,726.24
2018-10-19T07:41:28.898Z,726.30
2018-10-19T07:42:29.372Z,726.27
2018-10-19T07:43:29.840Z,726.31
2018-10-19T07:44:30.308Z,726.36
2018-10-19T07:45:30.780Z,726.32
2018-10-19T07:46:31.249Z,726.35
2018-10-19T07:47:31.741Z,726.31
2018-10-19T07:48:32.238Z,726.38
2018-10-19T07:49:32.659Z,726.36
2018-10-19T07:50:33.131Z,726.34
2018-10-19T07:51:33.608Z,726.35
2018-10-19T07:52:34.070Z,726.39
2018-10-19T07:53:34.555Z,726.34
2018-10-19T07:54:35.042Z,726.32
2018-10-19T07:55:35.488Z,726.29
2018-10-19T07:56:36.014Z,726.34
2018-10-19T07:57:36.425Z,726.34
2018-10-19T07:58:36.906Z,726.32
2018-10-19T07:59:37.370Z,726.36
2018-10-19T08:00:37.882Z,726.40
2018-10-19T08:01:38.312Z,726.31
2018-10-19T08:02:38.786Z,726.35
2018-10-19T08:03:39.259Z,726.36
2018-10-19T08:04:39.730Z,726.39
2018-10-19T08:05:40.204Z,726.36
2018-10-19T08:06:40.728Z,726.37
2018-10-19T08:07:41.152Z,726.37
2018-10-19T08:08:41.624Z,726.40
2018-10-19T08:09:42.097Z,726.38
2018-10-19T08:10:42.570Z,726.36
2018-10-19T08:11:43.045Z,726.33
2018-10-19T08:12:43.519Z,726.35
2018-10-19T08:13:43.994Z,726.39
2018-10-19T08:14:44.467Z,726.38
2018-10-19T08:15:44.941Z,726.39
2018-10-19T08:16:45.416Z,726.32
2018-10-19T08:17:45.890Z,726.37
2018-10-19T08:18:46.367Z,726.36
2018-10-19T08:19:46.839Z,726.42
2018-10-19T08:20:47.314Z,726.41
2018-10-19T08:21:47.841Z,726.43
2018-10-19T08:22:48.265Z,726.45
2018-10-19T08:23:48.740Z,726.41
2018-10-19T08:24:49.212Z,726.46
2018-10-19T08:25:49.685Z,726.47
2018-10-19T08:26:50.160Z,726.52
2018-10-19T08:27:50.634Z,726.48
2018-10-19T08:28:51.109Z,726.49
2018-10-19T08:29:51.582Z,726.51
2018-10-19T08:30:52.056Z,726.52
2018-10-19T08:31:52.562Z,726.51
2018-10-19T08:32:53.003Z,726.50
2018-10-19T08:33:53.483Z,726.53
2018-10-19T08:34:53.997Z,726.49
2018-10-19T08:35:54.424Z,726.52
2018-10-19T08:36:54.946Z,726.49
2018-10-19T08:37:55.369Z,726.52
2018-10-19T08:38:55.848Z,726.49
2018-10-19T08:39:56.317Z,726.50
2018-10-19T08:40:56.848Z,726.51
2018-10-19T08:41:57.264Z,726.50
2018-10-19T08:42:57.763Z,726.52
2018-10-19T08:43:58.211Z,726.51
2018-10-19T08:44:58.730Z,726.50
2018-10-19T08:45:59.148Z,726.54
2018-10-19T08:46:59.655Z,726.50
2018-10-19T08:48:00.099Z,726.50
2018-10-19T08:49:00.606Z,726.54
2018-10-19T08:50:01.036Z,726.56
2018-10-19T08:51:01.542Z,726.50
2018-10-19T08:52:01.977Z,726.57
2018-10-19T08:53:02.464Z,726.56
2018-10-19T08:54:02.923Z,726.59
2018-10-19T08:55:03.444Z,726.55
2018-10-19T08:56:03.862Z,726.56
2018-10-19T08:57:04.388Z,726.59
2018-10-19T08:58:04.824Z,726.55
2018-10-19T08:59:05.336Z,726.55
2018-10-19T09:00:05.777Z,726.62
2018-10-19T09:01:06.219Z,726.64
2018-10-19T09:02:06.689Z,726.66
2018-10-19T09:03:07.201Z,726.61
2018-10-19T09:04:07.680Z,726.62
2018-10-19T09:05:08.134Z,726.64
2018-10-19T09:06:08.630Z,726.61
2018-10-19T09:07:09.041Z,726.60
2018-10-19T09:08:09.514Z,726.61
2018-10-19T09:09:10.055Z,726.64
2018-10-19T09:10:10.456Z,726.66
2018-10-19T09:11:10.931Z,726.69
2018-10-19T09:12:11.399Z,726.66
2018-10-19T09:13:11.867Z,726.69
2018-10-19T09:14:12.347Z,726.64
2018-10-19T09:15:12.875Z,726.68
2018-10-19T09:16:13.285Z,726.71
2018-10-19T09:17:13.813Z,726.67
2018-10-19T09:18:14.230Z,726.67
2018-10-19T09:19:14.704Z,726.67
2018-10-19T09:20:15.378Z,726.73
2018-10-19T09:21:15.748Z,726.70
2018-10-19T09:22:16.328Z,726.71
2018-10-19T09:23:16.744Z,726.72
2018-10-19T09:24:17.076Z,726.73
2018-10-19T09:25:17.551Z,726.73
2018-10-19T09:26:18.019Z,726.70
2018-10-19T09:27:18.501Z,726.71
2018-10-19T09:28:18.970Z,726.75
2018-10-19T09:29:19.486Z,726.78
2018-10-19T09:30:19.920Z,726.73
2018-10-19T09:31:20.394Z,726.78
2018-10-19T09:32:20.871Z,726.75
2018-10-19T09:33:21.344Z,726.78
2018-10-19T09:34:21.821Z,726.74
2018-10-19T09:35:22.335Z,726.81
2018-10-19T09:36:22.896Z,726.81
2018-10-19T09:37:23.248Z,726.77
2018-10-19T09:38:23.724Z,726.83
2018-10-19T09:39:24.198Z,726.87
2018-10-19T09:40:24.673Z,726.84
2018-10-19T09:41:25.265Z,726.83
2018-10-19T09:42:25.623Z,726.81
2018-10-19T09:43:26.100Z,726.87
2018-10-19T09:44:26.573Z,726.80
2018-10-19T09:45:27.050Z,726.81
2018-10-19T09:46:27.524Z,726.76
2018-10-19T09:47:28.004Z,726.83
2018-10-19T09:48:28.472Z,726.80
2018-10-19T09:49:28.950Z,726.83
2018-10-19T09:50:29.422Z,726.81
2018-10-19T09:51:29.898Z,726.87
2018-10-19T09:52:30.376Z,726.83
2018-10-19T09:53:30.847Z,726.88
2018-10-19T09:54:31.319Z,726.83
2018-10-19T09:55:31.794Z,726.81
2018-10-19T09:56:32.272Z,726.89
2018-10-19T09:57:32.743Z,726.88
2018-10-19T09:58:33.217Z,726.89
2018-10-19T09:59:33.696Z,726.89
2018-10-19T10:00:34.165Z,726.89
2018-10-19T10:01:34.637Z,726.87
2018-10-19T10:02:35.113Z,726.87
2018-10-19T10:03:35.585Z,726.90
2018-10-19T10:04:36.064Z,726.85
2018-10-19T10:05:36.532Z,726.81
2018-10-19T10:06:37.220Z,726.87
2018-10-19T10:07:37.480Z,726.86
2018-10-19T10:08:37.955Z,726.87
2018-10-19T10:09:38.436Z,726.87
2018-10-19T10:10:38.900Z,726.91
2018-10-19T10:11:39.372Z,726.86
2018-10-19T10:12:39.847Z,726.87
2018-10-19T10:13:40.319Z,726.86
2018-10-19T10:14:40.807Z,726.82
2018-10-19T10:15:41.336Z,726.88
2018-10-19T10:16:41.743Z,726.88
2018-10-19T10:17:42.209Z,726.87
2018-10-19T10:18:42.684Z,726.91
2018-10-19T10:19:43.158Z,726.81
2018-10-19T10:20:43.630Z,726.86
2018-10-19T10:21:44.106Z,726.84
2018-10-19T10:22:44.575Z,726.86
2018-10-19T10:23:45.046Z,726.88
2018-10-19T10:24:45.587Z,726.89
2018-10-19T10:25:45.994Z,726.89
2018-10-19T10:26:46.465Z,726.86
2018-10-19T10:27:46.940Z,726.88
2018-10-19T10:28:47.409Z,726.88
2018-10-19T10:29:47.884Z,726.91
2018-10-19T10:30:48.355Z,726.85
2018-10-19T10:31:48.826Z,726.86
2018-10-19T10:32:49.299Z,726.84
2018-10-19T10:33:49.772Z,726.76
2018-10-19T10:34:50.243Z,726.81
2018-10-19T10:35:50.717Z,726.87
2018-10-19T10:36:51.188Z,726.84
2018-10-19T10:37:51.663Z,726.81
2018-10-19T10:38:52.160Z,726.82
2018-10-19T10:39:52.606Z,726.81
2018-10-19T10:40:53.076Z,726.79
2018-10-19T10:41:53.551Z,726.81
2018-10-19T10:42:54.023Z,726.81
2018-10-19T10:43:54.491Z,726.80
2018-10-19T10:44:54.967Z,726.79
2018-10-19T10:45:55.489Z,726.79
2018-10-19T10:46:55.930Z,726.79
2018-10-19T10:47:56.380Z,726.85
2018-10-19T10:48:56.925Z,726.85
2018-10-19T10:49:57.325Z,726.83
2018-10-19T10:50:57.795Z,726.85
2018-10-19T10:51:58.302Z,726.87
2018-10-19T10:52:58.742Z,726.86
2018-10-19T10:53:59.213Z,726.85
2018-10-19T10:54:59.719Z,726.82
2018-10-19T10:56:00.158Z,726.84
2018-10-19T10:57:00.628Z,726.86
2018-10-19T10:58:01.108Z,726.80
2018-10-19T10:59:01.572Z,726.82
2018-10-19T11:00:02.043Z,726.80
2018-10-19T11:01:02.565Z,726.83
2018-10-19T11:02:02.988Z,726.77
2018-10-19T11:03:03.510Z,726.78
2018-10-19T11:04:03.950Z,726.78
2018-10-19T11:05:04.404Z,726.79
2018-10-19T11:06:04.873Z,726.81
2018-10-19T11:07:05.367Z,726.78
2018-10-19T11:08:05.822Z,726.79
2018-10-19T11:09:06.292Z,726.76
2018-10-19T11:10:06.792Z,726.75
2018-10-19T11:11:07.237Z,726.74
2018-10-19T11:12:07.706Z,726.75
2018-10-19T11:13:08.223Z,726.81
2018-10-19T11:14:08.649Z,726.77
2018-10-19T11:15:09.125Z,726.73
2018-10-19T11:16:09.640Z,726.73
2018-10-19T11:17:10.068Z,726.70
2018-10-19T11:18:10.539Z,726.70
2018-10-19T11:19:11.041Z,726.68
2018-10-19T11:20:11.483Z,726.73
2018-10-19T11:21:12.001Z,726.70
2018-10-19T11:22:12.644Z,726.68
2018-10-19T11:23:12.897Z,726.68
2018-10-19T11:24:13.369Z,726.70
2018-10-19T11:25:13.937Z,726.70
2018-10-19T11:26:14.314Z,726.73
2018-10-19T11:27:14.789Z,726.73
2018-10-19T11:28:15.531Z,726.67
2018-10-19T11:29:15.731Z,726.72
2018-10-19T11:30:16.201Z,726.74
2018-10-19T11:31:16.754Z,726.70
2018-10-19T11:32:17.144Z,726.63
2018-10-19T11:33:17.618Z,726.74
2018-10-19T11:34:18.095Z,726.71
2018-10-19T11:35:18.563Z,726.68
2018-10-19T11:36:19.032Z,726.69
2018-10-19T11:37:19.518Z,726.64
2018-10-19T11:38:19.975Z,726.66
2018-10-19T11:39:20.449Z,726.64
2018-10-19T11:40:20.923Z,726.64
2018-10-19T11:41:21.394Z,726.66
2018-10-19T11:42:22.070Z,726.63
2018-10-19T11:43:22.339Z,726.59
2018-10-19T11:44:22.810Z,726.62
2018-10-19T11:45:23.281Z,726.64
2018-10-19T11:46:23.958Z,726.68
2018-10-19T11:47:24.227Z,726.60
2018-10-19T11:48:24.749Z,726.63
2018-10-19T11:49:25.171Z,726.61
2018-10-19T11:50:25.642Z,726.70
2018-10-19T11:51:26.117Z,726.60
2018-10-19T11:52:26.590Z,726.65
2018-10-19T11:53:27.061Z,726.64
2018-10-19T11:54:27.532Z,726.67
2018-10-19T11:55:28.005Z,726.63
2018-10-19T11:56:28.478Z,726.64
2018-10-19T11:57:28.951Z,726.64
2018-10-19T11:58:29.423Z,726.64
2018-10-19T11:59:29.895Z,726.66
2018-10-19T12:00:30.371Z,726.70
2018-10-19T12:01:30.839Z,726.68
2018-10-19T12:02:31.313Z,726.66
2018-10-19T12:03:31.831Z,726.70
2018-10-19T12:04:32.256Z,726.63
2018-10-19T12:05:32.730Z,726.61
2018-10-19T12:06:33.205Z,726.64
2018-10-19T12:07:33.674Z,726.61
2018-10-19T12:08:34.147Z,726.61
2018-10-19T12:09:34.621Z,726.63
2018-10-19T12:10:35.153Z,726.63
2018-10-19T12:11:35.564Z,726.65
2018-10-19T12:12:36.050Z,726.63
2018-10-19T12:13:36.562Z,726.61
2018-10-19T12:14:36.982Z,726.66
2018-10-19T12:15:37.455Z,726.64
2018-10-19T12:16:37.989Z,726.65
2018-10-19T12:17:38.401Z,726.63
2018-10-19T12:18:38.875Z,726.61
2018-10-19T12:19:39.349Z,726.61
2018-10-19T12:20:39.857Z,726.65
2018-10-19T12:21:40.292Z,726.62
2018-10-19T12:22:40.761Z,726.60
2018-10-19T12:23:41.236Z,726.60
2018-10-19T12:24:41.710Z,726.59
2018-10-19T12:25:42.185Z,726.61
2018-10-19T12:26:42.653Z,726.58
2018-10-19T12:27:43.131Z,726.61
2018-10-19T12:28:43.602Z,726.61
2018-10-19T12:29:44.074Z,726.59
2018-10-19T12:30:44.548Z,726.58
2018-10-19T12:31:45.018Z,726.59
2018-10-19T12:32:45.491Z,726.57
2018-10-19T12:33:45.967Z,726.55
2018-10-19T12:34:46.436Z,726.58